Time;durP1;ratioP1;P1;durP2;ratioP2;P2;SDS_P1;SDS_P2;PMS_P1;PMS_P2;Temp;Humidity;BMP_temperature;BMP_pressure;BME280_temperature;BME280_humidity;BME280_pressure;Samples;Min_cycle;Max_cycle;Signal;HPM_P1;HPM_P2
2022/12/17 13:06:53;;;;;;;7.38;6.13;;;22.40;35.80;;;;;;6116319;23;20026;-64
2022/12/17 13:09:27;;;;;;;7.18;6.07;;;22.40;35.90;;;;;;6090556;23;20018;-64
2022/12/17 13:11:59;;;;;;;6.97;6.30;;;22.40;35.80;;;;;;6089836;23;20053;-65
2022/12/17 13:14:52;;;;;;;7.25;6.45;;;22.40;35.80;;;;;;6117790;23;20382;-64
2022/12/17 13:17:25;;;;;;;9.27;7.10;;;22.40;35.70;;;;;;6088687;23;20017;-63
2022/12/17 13:19:58;;;;;;;7.40;6.47;;;22.40;35.70;;;;;;6114721;23;20018;-65
2022/12/17 13:22:27;;;;;;;8.05;6.03;;;22.40;35.80;;;;;;6114174;23;20077;-64
2022/12/17 13:24:56;;;;;;;8.02;6.55;;;22.40;35.90;;;;;;6115772;23;20014;-64
2022/12/17 13:27:34;;;;;;;7.55;5.75;;;22.40;36.10;;;;;;6064913;23;20022;-63
2022/12/17 13:30:37;;;;;;;11.98;5.65;;;22.40;36.20;;;;;;6087745;23;20017;-64
2022/12/17 13:33:21;;;;;;;11.57;5.88;;;22.40;36.40;;;;;;6088040;23;20022;-64
2022/12/17 13:36:01;;;;;;;9.80;5.65;;;22.40;36.30;;;;;;6115537;23;20104;-63
2022/12/17 13:38:47;;;;;;;7.45;5.88;;;22.40;36.40;;;;;;6114572;23;20057;-64
2022/12/17 13:41:14;;;;;;;5.85;5.03;;;22.40;36.70;;;;;;6114297;23;20076;-64
2022/12/17 13:43:57;;;;;;;7.05;5.68;;;22.40;36.70;;;;;;6114868;23;20376;-63
2022/12/17 13:46:28;;;;;;;7.45;5.75;;;22.40;37.20;;;;;;6065118;23;20104;-63
2022/12/17 13:48:59;;;;;;;9.20;6.00;;;22.40;37.30;;;;;;6088381;23;20021;-62
2022/12/17 13:51:32;;;;;;;6.03;5.43;;;22.40;37.40;;;;;;6115055;23;20029;-63
2022/12/17 13:54:00;;;;;;;9.18;5.68;;;22.40;37.60;;;;;;6111515;23;20129;-62
2022/12/17 13:56:32;;;;;;;7.15;5.55;;;22.30;38.00;;;;;;6062946;23;20060;-64
2022/12/17 13:59:01;;;;;;;11.70;5.70;;;22.30;38.30;;;;;;6062286;23;20657;-63
2022/12/17 14:01:27;;;;;;;8.63;5.47;;;22.30;38.30;;;;;;6087357;23;20411;-64
2022/12/17 14:04:01;;;;;;;5.75;5.07;;;22.40;38.50;;;;;;6086265;23;20010;-64
2022/12/17 14:06:37;;;;;;;6.25;5.70;;;22.40;38.60;;;;;;6114099;23;20018;-64
2022/12/17 14:09:03;;;;;;;6.22;5.18;;;22.40;38.70;;;;;;6111729;23;20014;-64
2022/12/17 14:14:33;;;;;;;7.25;5.22;;;22.40;38.60;;;;;;6113391;23;20100;-63
2022/12/17 14:16:59;;;;;;;10.48;5.90;;;22.30;39.00;;;;;;6088114;23;20491;-63
2022/12/17 14:19:27;;;;;;;12.18;6.32;;;22.30;39.00;;;;;;6115603;23;20014;-63
2022/12/17 14:21:54;;;;;;;7.90;5.38;;;22.30;39.10;;;;;;6089400;23;20104;-63
2022/12/17 14:24:25;;;;;;;9.35;6.82;;;22.20;39.10;;;;;;6063937;23;20073;-63
2022/12/17 14:26:56;;;;;;;14.48;5.60;;;22.20;38.80;;;;;;6088604;23;20093;-63
2022/12/17 14:29:24;;;;;;;8.82;6.20;;;22.00;38.70;;;;;;6114041;23;20088;-63
2022/12/17 14:31:55;;;;;;;8.98;6.40;;;21.80;39.10;;;;;;6112792;23;20097;-63
2022/12/17 14:34:22;;;;;;;8.73;7.53;;;21.60;39.20;;;;;;6113602;23;20022;-63
2022/12/17 14:36:56;;;;;;;8.73;7.65;;;21.40;38.90;;;;;;6113880;23;20100;-62
2022/12/17 14:39:28;;;;;;;9.07;7.80;;;21.20;38.60;;;;;;6114048;23;20014;-63
2022/12/17 14:42:25;;;;;;;12.00;8.07;;;21.10;38.60;;;;;;6089752;23;20018;-63
2022/12/17 14:45:04;;;;;;;11.55;7.53;;;20.90;39.30;;;;;;6090608;23;20117;-61
2022/12/17 14:47:34;;;;;;;9.93;7.28;;;20.80;39.00;;;;;;6117134;23;20046;-63
2022/12/17 14:50:12;;;;;;;7.70;6.88;;;20.70;39.80;;;;;;6116660;23;20025;-63
2022/12/17 14:52:38;;;;;;;6.60;6.00;;;20.70;40.20;;;;;;6091249;23;20014;-62
2022/12/17 14:55:23;;;;;;;6.63;5.93;;;21.00;39.70;;;;;;6090964;23;20076;-63
2022/12/17 14:58:04;;;;;;;6.43;5.82;;;21.30;39.30;;;;;;6116890;23;20052;-62
2022/12/17 15:00:30;;;;;;;7.70;6.05;;;21.50;38.70;;;;;;6112882;23;20051;-62
2022/12/17 15:02:55;;;;;;;6.63;6.00;;;21.70;38.30;;;;;;6113054;23;20415;-63
2022/12/17 15:05:22;;;;;;;7.95;5.97;;;21.90;38.00;;;;;;6088650;23;20335;-63
2022/12/17 15:07:47;;;;;;;7.05;5.60;;;21.90;37.80;;;;;;6087262;23;20072;-62
2022/12/17 15:10:18;;;;;;;7.18;6.18;;;22.00;37.70;;;;;;6087262;23;20270;-63
2022/12/17 15:12:44;;;;;;;7.15;5.75;;;22.10;37.50;;;;;;6114131;23;20018;-62
2022/12/17 15:15:16;;;;;;;5.78;5.20;;;22.20;37.50;;;;;;6105092;23;20014;-63
2022/12/17 15:17:42;;;;;;;7.97;5.63;;;22.20;37.30;;;;;;6086930;23;20808;-63
2022/12/17 15:20:20;;;;;;;8.25;5.93;;;22.20;37.30;;;;;;6063840;23;20096;-62
2022/12/17 15:22:46;;;;;;;6.35;5.53;;;22.20;37.30;;;;;;6087831;23;20018;-62
2022/12/17 15:25:17;;;;;;;6.47;5.63;;;22.20;37.20;;;;;;6113032;23;20064;-63
2022/12/17 15:27:44;;;;;;;6.80;5.68;;;22.20;37.30;;;;;;6086576;23;20335;-63
2022/12/17 15:30:14;;;;;;;7.25;5.70;;;22.20;37.40;;;;;;6088075;23;20026;-63
2022/12/17 15:32:39;;;;;;;6.43;5.70;;;22.30;37.40;;;;;;6087062;23;20233;-63
2022/12/17 15:35:06;;;;;;;7.13;5.95;;;22.30;37.30;;;;;;6086921;23;20406;-62
2022/12/17 15:37:32;;;;;;;6.93;5.00;;;22.30;37.40;;;;;;6113063;23;20018;-62
2022/12/17 15:39:57;;;;;;;6.63;5.68;;;22.40;37.50;;;;;;6087358;23;20056;-63
2022/12/17 15:45:07;;;;;;;7.55;5.28;;;22.40;37.70;;;;;;6113274;23;20531;-62
2022/12/17 15:47:33;;;;;;;7.45;5.53;;;22.40;37.70;;;;;;6113317;23;20042;-62
2022/12/17 15:49:59;;;;;;;9.07;5.63;;;22.40;37.80;;;;;;6086271;23;20189;-61
2022/12/17 15:52:24;;;;;;;6.55;5.35;;;22.40;37.90;;;;;;6111617;23;20022;-61
2022/12/17 15:54:50;;;;;;;6.85;5.50;;;22.50;38.00;;;;;;6087499;23;20029;-62
2022/12/17 15:57:16;;;;;;;11.48;6.25;;;22.50;38.20;;;;;;6085477;23;20025;-62
2022/12/17 15:59:41;;;;;;;9.85;5.45;;;22.50;38.20;;;;;;6114465;23;20018;-62
2022/12/17 16:02:09;;;;;;;7.40;5.53;;;22.50;38.30;;;;;;6086584;23;20169;-61
2022/12/17 16:04:36;;;;;;;9.50;5.38;;;22.50;38.30;;;;;;6113719;23;20323;-62
2022/12/17 16:07:03;;;;;;;6.93;5.45;;;22.50;38.40;;;;;;6112088;23;20020;-61
2022/12/17 16:09:29;;;;;;;6.88;5.35;;;22.60;38.50;;;;;;6087353;23;20018;-61
2022/12/17 16:11:55;;;;;;;9.95;5.90;;;22.60;38.60;;;;;;6062164;23;20367;-62
2022/12/17 16:14:22;;;;;;;6.72;5.85;;;22.60;38.70;;;;;;6112214;23;20518;-61
2022/12/17 16:16:49;;;;;;;8.15;5.80;;;22.60;38.70;;;;;;6063853;23;20362;-61
2022/12/17 16:19:15;;;;;;;8.65;5.78;;;22.60;38.90;;;;;;6087656;23;20028;-62
2022/12/17 16:21:41;;;;;;;7.20;5.03;;;22.70;38.90;;;;;;6061878;23;20901;-63
2022/12/17 16:24:07;;;;;;;6.35;5.10;;;22.70;38.90;;;;;;6086837;23;20020;-62
2022/12/17 16:26:32;;;;;;;9.32;5.32;;;22.80;38.90;;;;;;6085804;23;20404;-63
2022/12/17 16:28:58;;;;;;;7.22;4.88;;;22.80;38.90;;;;;;6112514;23;20009;-61
2022/12/17 16:31:24;;;;;;;8.10;5.40;;;22.90;39.00;;;;;;6113966;23;20013;-61
2022/12/17 16:33:51;;;;;;;7.60;5.45;;;23.00;39.90;;;;;;6112233;23;20085;-62
2022/12/17 16:36:19;;;;;;;7.93;5.05;;;23.00;39.20;;;;;;6112895;23;20024;-62
2022/12/17 16:38:50;;;;;;;7.38;4.85;;;23.00;39.60;;;;;;6110928;23;20024;-61
2022/12/17 16:41:17;;;;;;;5.82;5.18;;;23.00;39.80;;;;;;6087067;23;20022;-62
2022/12/17 16:43:43;;;;;;;6.20;5.35;;;23.00;40.00;;;;;;6112502;23;20025;-62
2022/12/17 16:46:29;;;;;;;6.13;5.20;;;23.10;40.30;;;;;;6087972;23;20080;-64
2022/12/17 16:48:58;;;;;;;7.18;5.10;;;23.10;40.70;;;;;;6112658;23;20013;-62
2022/12/17 16:51:27;;;;;;;6.47;5.07;;;23.10;40.60;;;;;;6112525;23;20021;-63
2022/12/17 16:53:53;;;;;;;7.28;4.95;;;23.10;40.60;;;;;;6087104;23;20057;-63
2022/12/17 16:56:22;;;;;;;8.32;4.95;;;23.00;40.70;;;;;;6086569;23;20026;-62
2022/12/17 16:58:48;;;;;;;7.13;4.95;;;23.00;40.70;;;;;;6111608;23;20351;-62
2022/12/17 17:01:27;;;;;;;5.50;5.00;;;22.90;40.80;;;;;;6085464;23;20053;-63
2022/12/17 17:03:53;;;;;;;6.43;4.68;;;22.90;40.90;;;;;;6061741;23;20018;-62
2022/12/17 17:06:20;;;;;;;5.30;4.80;;;22.90;41.00;;;;;;6114442;23;20046;-62
2022/12/17 17:08:47;;;;;;;6.80;5.03;;;22.90;41.10;;;;;;6063540;23;20022;-62
2022/12/17 17:11:20;;;;;;;6.63;4.97;;;22.90;41.30;;;;;;6065067;23;20022;-61
2022/12/17 17:13:53;;;;;;;5.80;4.60;;;22.90;41.30;;;;;;6064303;23;20077;-62
2022/12/17 17:16:22;;;;;;;6.20;4.68;;;22.90;41.10;;;;;;6089678;23;20061;-61
2022/12/17 17:18:48;;;;;;;5.93;5.10;;;22.90;41.00;;;;;;6114113;23;20090;-62
2022/12/17 17:21:17;;;;;;;11.43;4.75;;;22.90;40.90;;;;;;6088824;23;20431;-62
2022/12/17 17:23:43;;;;;;;5.05;4.45;;;23.00;40.90;;;;;;6115006;23;20018;-61
2022/12/17 17:26:10;;;;;;;6.40;4.72;;;22.90;40.90;;;;;;6113477;23;20052;-62
2022/12/17 17:28:36;;;;;;;11.55;5.20;;;22.90;40.90;;;;;;6113314;23;20018;-62
2022/12/17 17:31:04;;;;;;;8.20;4.47;;;22.90;40.70;;;;;;6114522;23;20018;-61
2022/12/17 17:33:33;;;;;;;11.32;4.80;;;22.90;40.60;;;;;;6087445;23;20029;-62
2022/12/17 17:36:20;;;;;;;5.97;4.65;;;22.90;40.40;;;;;;6113599;23;20026;-65
2022/12/17 17:38:47;;;;;;;6.00;4.80;;;22.90;40.20;;;;;;6115244;23;20022;-65
2022/12/17 17:41:19;;;;;;;8.27;4.88;;;22.80;40.20;;;;;;6089197;23;20103;-69
2022/12/17 17:43:46;;;;;;;5.95;4.93;;;22.80;40.30;;;;;;6089309;23;20584;-62
2022/12/17 17:46:17;;;;;;;5.80;4.50;;;22.70;40.20;;;;;;6088766;23;20010;-61
2022/12/17 17:48:43;;;;;;;;;;;22.60;40.10;;;;;;6115473;23;20024;-62
2022/12/17 17:51:14;;;;;;;5.55;4.38;;;22.60;40.00;;;;;;6115659;23;19989;-63
2022/12/17 17:53:41;;;;;;;10.35;5.00;;;22.50;40.10;;;;;;6064476;23;20033;-62
2022/12/17 17:56:13;;;;;;;7.22;5.30;;;22.50;40.10;;;;;;6088773;23;20018;-62
2022/12/17 17:58:41;;;;;;;6.20;4.80;;;22.40;40.10;;;;;;6087080;23;20017;-62
2022/12/17 18:01:09;;;;;;;8.95;4.75;;;22.40;40.20;;;;;;6086745;23;20127;-61
2022/12/17 18:03:34;;;;;;;9.15;5.18;;;22.30;40.10;;;;;;6111194;23;20053;-65
2022/12/17 18:06:02;;;;;;;8.65;4.63;;;22.30;40.20;;;;;;6065020;23;20104;-63
2022/12/17 18:08:31;;;;;;;8.23;4.53;;;22.20;40.90;;;;;;6088254;23;20037;-61
2022/12/17 18:10:58;;;;;;;6.78;4.40;;;22.20;40.30;;;;;;6088370;23;20022;-63
2022/12/17 18:16:08;;;;;;;5.20;4.20;;;22.10;40.30;;;;;;6089636;23;20022;-62
2022/12/17 18:18:34;;;;;;;5.93;4.78;;;22.00;40.40;;;;;;6064878;23;20361;-62
2022/12/17 18:21:05;;;;;;;7.03;5.28;;;21.90;40.40;;;;;;6090543;23;20022;-63
2022/12/17 18:23:31;;;;;;;5.07;4.50;;;21.90;40.30;;;;;;6089931;23;20036;-63
2022/12/17 18:26:04;;;;;;;8.20;5.38;;;21.80;40.30;;;;;;6117201;23;20013;-63
2022/12/17 18:28:30;;;;;;;7.15;5.35;;;21.80;40.30;;;;;;6117422;23;20443;-63
2022/12/17 18:30:55;;;;;;;11.77;5.60;;;21.70;40.40;;;;;;6090209;23;20018;-63
2022/12/17 18:33:21;;;;;;;8.35;4.90;;;21.70;41.20;;;;;;6088318;23;20074;-62
2022/12/17 18:35:47;;;;;;;8.27;5.10;;;21.70;40.50;;;;;;6091404;23;20049;-62
2022/12/17 18:38:13;;;;;;;6.25;4.97;;;21.60;40.50;;;;;;6091050;23;20014;-62
2022/12/17 18:40:39;;;;;;;9.35;5.60;;;21.60;40.50;;;;;;6090777;23;20022;-62
2022/12/17 18:43:22;;;;;;;5.95;5.30;;;21.60;40.60;;;;;;6089990;23;20465;-61
2022/12/17 18:45:52;;;;;;;8.15;4.85;;;21.70;40.60;;;;;;6117854;23;20019;-61
2022/12/17 18:48:19;;;;;;;7.32;5.30;;;21.70;40.40;;;;;;6116427;23;20014;-62
2022/12/17 18:50:45;;;;;;;8.35;5.57;;;21.80;40.30;;;;;;6091148;23;20022;-62
2022/12/17 18:53:11;;;;;;;7.70;5.53;;;21.80;40.10;;;;;;6091247;23;20350;-62
2022/12/17 18:55:40;;;;;;;6.88;5.15;;;21.90;40.00;;;;;;6090684;23;20108;-61
2022/12/17 18:58:09;;;;;;;8.73;5.80;;;21.90;40.00;;;;;;6088016;23;20761;-62
2022/12/17 19:00:36;;;;;;;6.88;5.40;;;22.00;39.90;;;;;;6113165;23;20320;-62
2022/12/17 19:03:04;;;;;;;8.48;5.35;;;22.00;39.90;;;;;;6085577;23;20364;-62
2022/12/17 19:05:31;;;;;;;9.93;5.60;;;22.10;39.80;;;;;;6089056;23;20017;-63
2022/12/17 19:07:57;;;;;;;6.93;4.78;;;22.10;39.80;;;;;;6061661;23;20451;-62
2022/12/17 19:10:23;;;;;;;6.55;5.35;;;22.20;39.90;;;;;;6088257;23;20061;-61
2022/12/17 19:12:51;;;;;;;6.93;4.90;;;22.20;39.80;;;;;;6064623;23;20022;-62
2022/12/17 19:15:17;;;;;;;7.10;5.20;;;22.20;39.80;;;;;;6113299;23;20017;-62
2022/12/17 19:17:43;;;;;;;6.75;4.70;;;22.20;39.70;;;;;;6109962;23;20072;-61
2022/12/17 19:20:09;;;;;;;8.90;5.68;;;22.20;39.70;;;;;;6112517;23;20054;-61
2022/12/17 19:22:35;;;;;;;6.68;5.25;;;22.20;39.70;;;;;;6063770;23;20014;-61
2022/12/17 19:25:00;;;;;;;6.55;5.22;;;22.20;39.80;;;;;;6112659;23;20138;-60
2022/12/17 19:27:27;;;;;;;5.18;4.50;;;22.20;40.00;;;;;;6084949;23;20022;-62
2022/12/17 19:29:55;;;;;;;5.63;4.90;;;22.20;40.00;;;;;;6062833;23;20328;-62
2022/12/17 19:32:22;;;;;;;8.15;4.63;;;22.20;40.00;;;;;;6085223;23;20025;-62
2022/12/17 19:34:48;;;;;;;6.90;5.28;;;22.20;40.00;;;;;;6112569;23;20094;-62
2022/12/17 19:37:13;;;;;;;6.88;5.03;;;22.10;40.00;;;;;;6111971;23;20773;-62
2022/12/17 19:39:39;;;;;;;7.50;5.00;;;22.00;40.00;;;;;;6062519;23;20100;-62
2022/12/17 19:42:23;;;;;;;5.38;4.80;;;22.00;40.00;;;;;;6085217;23;20373;-62
2022/12/17 19:44:49;;;;;;;6.75;5.32;;;22.00;40.00;;;;;;6114429;23;20462;-62
2022/12/17 19:47:15;;;;;;;5.97;4.82;;;21.90;40.00;;;;;;6112462;23;20017;-62
2022/12/17 19:49:40;;;;;;;6.25;5.55;;;21.90;40.00;;;;;;6113328;23;20533;-61
2022/12/17 19:52:06;;;;;;;6.25;5.05;;;21.90;40.00;;;;;;6112069;23;20017;-61
2022/12/17 19:54:32;;;;;;;7.30;5.03;;;21.80;40.00;;;;;;6113906;23;20053;-61
2022/12/17 19:56:57;;;;;;;6.43;5.38;;;21.90;40.00;;;;;;6113125;23;20024;-62
2022/12/17 19:59:23;;;;;;;8.52;5.70;;;21.90;40.00;;;;;;6114235;23;20093;-62
2022/12/17 20:01:49;;;;;;;5.63;5.13;;;21.90;39.80;;;;;;6086029;23;20077;-62
2022/12/17 20:04:16;;;;;;;7.85;5.53;;;21.90;39.50;;;;;;6086969;23;20287;-62
2022/12/17 20:06:42;;;;;;;6.95;5.15;;;22.00;39.50;;;;;;6086694;23;20134;-62
2022/12/17 20:09:08;;;;;;;10.35;5.70;;;22.00;39.30;;;;;;6112944;23;20434;-61
2022/12/17 20:11:34;;;;;;;6.63;5.20;;;22.10;39.20;;;;;;6112840;23;20016;-62
2022/12/17 20:14:22;;;;;;;8.10;5.82;;;22.20;39.20;;;;;;6086632;23;20017;-62
2022/12/17 20:16:55;;;;;;;5.90;5.30;;;22.20;38.90;;;;;;6113059;23;20481;-62
2022/12/17 20:19:23;;;;;;;5.95;5.35;;;22.30;39.00;;;;;;6084229;23;20355;-62
2022/12/17 20:21:49;;;;;;;7.35;5.35;;;22.30;38.70;;;;;;6086111;23;20503;-62
2022/12/17 20:24:16;;;;;;;6.72;5.22;;;22.30;38.50;;;;;;6086910;23;20118;-62
2022/12/17 20:26:42;;;;;;;5.85;5.15;;;22.40;38.40;;;;;;6111598;23;20116;-62
2022/12/17 20:29:08;;;;;;;5.70;5.05;;;22.40;38.20;;;;;;6110639;23;20362;-62
2022/12/17 20:31:34;;;;;;;6.60;5.10;;;22.40;38.10;;;;;;6112399;23;20395;-62
2022/12/17 20:34:02;;;;;;;6.32;5.63;;;22.50;38.20;;;;;;6084971;23;20030;-62
2022/12/17 20:36:28;;;;;;;6.55;5.90;;;22.40;38.90;;;;;;6111634;23;20093;-62
2022/12/17 20:38:54;;;;;;;8.65;6.20;;;22.40;38.00;;;;;;6061501;23;20096;-62
2022/12/17 20:41:22;;;;;;;8.98;6.45;;;22.40;38.00;;;;;;6085283;23;20408;-62
2022/12/17 20:43:49;;;;;;;6.78;6.03;;;22.40;37.90;;;;;;6086023;23;20026;-63
2022/12/17 20:46:16;;;;;;;8.38;6.38;;;22.50;37.90;;;;;;6112711;23;20020;-63
2022/12/17 20:48:42;;;;;;;9.70;6.65;;;22.50;37.90;;;;;;6085294;23;20444;-62
2022/12/17 20:51:17;;;;;;;10.93;6.32;;;22.50;37.90;;;;;;6112820;23;20014;-64
2022/12/17 20:53:43;;;;;;;9.13;5.97;;;22.50;37.90;;;;;;6086142;23;20014;-61
2022/12/17 20:56:12;;;;;;;6.75;6.07;;;22.50;37.70;;;;;;6086669;23;20051;-62
2022/12/17 20:58:38;;;;;;;9.50;6.75;;;22.60;37.50;;;;;;6112525;23;20050;-62
2022/12/17 21:01:10;;;;;;;9.60;7.40;;;22.70;37.40;;;;;;6112702;23;20021;-62
2022/12/17 21:03:36;;;;;;;9.60;6.82;;;22.70;37.20;;;;;;6085784;23;20352;-63
2022/12/17 21:06:09;;;;;;;9.25;6.82;;;22.70;37.00;;;;;;6113198;23;20347;-62
2022/12/17 21:08:36;;;;;;;8.88;6.50;;;22.80;36.90;;;;;;6085449;23;20405;-62
2022/12/17 21:11:02;;;;;;;8.65;7.30;;;22.80;36.80;;;;;;6112412;23;20025;-62
2022/12/17 21:13:28;;;;;;;9.30;6.75;;;22.80;36.60;;;;;;6112793;23;20049;-63
2022/12/17 21:15:54;;;;;;;8.80;6.47;;;22.80;36.40;;;;;;6086426;23;20049;-63
2022/12/17 21:18:20;;;;;;;10.35;7.25;;;22.80;36.30;;;;;;6112704;23;20022;-62
2022/12/17 21:21:06;;;;;;;9.85;6.63;;;22.80;36.30;;;;;;6113601;23;20029;-63
2022/12/17 21:23:33;;;;;;;7.95;7.15;;;22.80;36.10;;;;;;6113508;23;20414;-62
2022/12/17 21:26:03;;;;;;;7.70;6.82;;;22.70;36.20;;;;;;6113201;23;20040;-62
2022/12/17 21:28:29;;;;;;;7.43;6.73;;;22.70;36.10;;;;;;6086986;23;20072;-63
2022/12/17 21:30:56;;;;;;;10.00;7.68;;;22.70;36.20;;;;;;6086493;23;20474;-63
2022/12/17 21:33:21;;;;;;;7.88;6.93;;;22.60;36.20;;;;;;6112927;23;20025;-63
2022/12/17 21:35:47;;;;;;;9.15;6.63;;;22.60;36.20;;;;;;6114931;23;20010;-64
2022/12/17 21:38:14;;;;;;;8.10;7.00;;;22.50;36.20;;;;;;6087062;23;20335;-63
2022/12/17 21:40:41;;;;;;;9.63;7.45;;;22.50;36.20;;;;;;6112817;23;20069;-62
2022/12/17 21:43:06;;;;;;;10.02;8.18;;;22.50;36.20;;;;;;6087544;23;20072;-63
2022/12/17 21:45:40;;;;;;;10.63;7.63;;;22.40;36.10;;;;;;6114931;23;20010;-62
2022/12/17 21:48:09;;;;;;;9.07;6.82;;;22.40;36.40;;;;;;6088070;23;20073;-63
2022/12/17 21:50:42;;;;;;;10.70;8.00;;;22.30;36.40;;;;;;6086659;23;20359;-63
2022/12/17 21:53:10;;;;;;;9.30;7.95;;;22.30;36.40;;;;;;6114142;23;20040;-62
2022/12/17 21:55:36;;;;;;;11.02;7.43;;;22.20;36.30;;;;;;6115909;23;20025;-63
2022/12/17 21:58:02;;;;;;;8.60;6.97;;;22.30;36.40;;;;;;6112999;23;20350;-66
2022/12/17 22:00:28;;;;;;;8.43;7.25;;;22.30;36.30;;;;;;6088737;23;20018;-63
2022/12/17 22:02:54;;;;;;;8.43;7.53;;;22.30;36.10;;;;;;6114262;23;20013;-63
2022/12/17 22:05:20;;;;;;;10.00;7.78;;;22.40;36.00;;;;;;6112206;23;20077;-63
2022/12/17 22:07:46;;;;;;;8.48;7.15;;;22.40;36.00;;;;;;6113219;23;20156;-62
2022/12/17 22:10:12;;;;;;;8.55;7.70;;;22.40;36.10;;;;;;6113638;23;20389;-63
2022/12/17 22:15:22;;;;;;;9.05;7.57;;;22.50;36.20;;;;;;6089390;23;20022;-63
2022/12/17 22:17:47;;;;;;;10.60;7.85;;;22.50;36.20;;;;;;6115841;23;20069;-63
2022/12/17 22:20:16;;;;;;;9.10;7.65;;;22.60;36.20;;;;;;6114045;23;20018;-64
2022/12/17 22:22:43;;;;;;;9.27;7.40;;;22.60;36.20;;;;;;6088305;23;20359;-64
2022/12/17 22:25:10;;;;;;;8.65;7.57;;;22.70;36.50;;;;;;6089703;23;20022;-63
2022/12/17 22:27:37;;;;;;;9.30;7.43;;;22.70;36.20;;;;;;6088766;23;20379;-64
2022/12/17 22:32:58;;;;;;;10.95;7.82;;;22.80;36.20;;;;;;6114388;23;20026;-63
2022/12/17 22:35:26;;;;;;;8.05;7.10;;;22.80;36.10;;;;;;6113906;23;20073;-63
2022/12/17 22:37:52;;;;;;;7.82;7.03;;;22.80;36.10;;;;;;6113996;23;20101;-64
2022/12/17 22:40:19;;;;;;;8.20;7.32;;;22.90;36.10;;;;;;6088866;23;20358;-64
2022/12/17 22:45:38;;;;;;;12.32;6.93;;;22.90;36.00;;;;;;6071136;23;20018;-64
2022/12/17 22:48:05;;;;;;;10.45;7.43;;;22.90;36.00;;;;;;6092328;23;20022;-65
2022/12/17 22:50:31;;;;;;;10.05;7.00;;;22.90;36.00;;;;;;6092466;23;20040;-65
2022/12/17 22:52:56;;;;;;;14.65;7.70;;;22.90;35.90;;;;;;6114829;23;20443;-64
2022/12/17 22:55:22;;;;;;;12.45;7.50;;;22.90;35.90;;;;;;6115502;23;20117;-65
2022/12/17 22:57:47;;;;;;;11.20;7.45;;;22.90;36.00;;;;;;6116744;23;20450;-64
2022/12/17 23:00:16;;;;;;;9.15;7.38;;;22.80;35.90;;;;;;6117462;23;20370;-64
2022/12/17 23:02:42;;;;;;;11.88;7.68;;;22.80;35.90;;;;;;6116432;23;20100;-63
2022/12/17 23:05:08;;;;;;;10.15;6.90;;;22.80;35.80;;;;;;6091675;23;20074;-64
2022/12/17 23:07:33;;;;;;;9.98;7.38;;;22.70;35.80;;;;;;6091694;23;20029;-63
2022/12/17 23:09:59;;;;;;;9.02;7.32;;;22.70;35.70;;;;;;6091938;23;20013;-65
2022/12/17 23:15:09;;;;;;;10.05;7.55;;;22.60;35.60;;;;;;6092284;23;20022;-64
2022/12/17 23:17:35;;;;;;;9.90;8.07;;;22.60;35.60;;;;;;6117342;23;20026;-63
2022/12/17 23:20:01;;;;;;;8.57;7.68;;;22.50;35.70;;;;;;6117331;23;20053;-63
2022/12/17 23:22:26;;;;;;;10.45;7.28;;;22.50;35.60;;;;;;6117311;23;20010;-62
2022/12/17 23:24:52;;;;;;;7.75;6.95;;;22.40;35.60;;;;;;6118546;23;20014;-63
2022/12/17 23:27:18;;;;;;;9.10;7.00;;;22.40;35.50;;;;;;6117742;23;20371;-63
2022/12/17 23:29:43;;;;;;;8.10;7.30;;;22.30;35.50;;;;;;6117852;23;20018;-63
2022/12/17 23:32:09;;;;;;;8.50;7.40;;;22.30;35.40;;;;;;6092322;23;20030;-64
2022/12/17 23:34:34;;;;;;;8.82;7.50;;;22.30;35.50;;;;;;6118556;23;20022;-64
2022/12/17 23:37:00;;;;;;;8.85;7.63;;;22.20;35.40;;;;;;6118343;23;20446;-64
2022/12/17 23:39:26;;;;;;;8.40;7.15;;;22.20;35.50;;;;;;6118830;23;20508;-63
2022/12/17 23:41:53;;;;;;;8.63;7.45;;;22.10;35.30;;;;;;6090238;23;20014;-65
2022/12/17 23:44:19;;;;;;;12.15;8.00;;;22.10;35.40;;;;;;6091981;23;20010;-65
2022/12/17 23:46:44;;;;;;;7.43;6.72;;;22.10;35.40;;;;;;6093299;23;20021;-65
2022/12/17 23:49:10;;;;;;;9.32;7.47;;;22.00;35.40;;;;;;6092638;23;20400;-65
2022/12/17 23:51:36;;;;;;;9.10;7.85;;;22.00;35.30;;;;;;6118969;23;20068;-65
2022/12/17 23:54:02;;;;;;;8.40;7.50;;;21.90;35.30;;;;;;6092764;23;20021;-65
2022/12/17 23:56:27;;;;;;;8.75;6.93;;;21.90;35.30;;;;;;6119508;23;20025;-66
2022/12/17 23:58:57;;;;;;;8.30;6.80;;;21.90;35.30;;;;;;6118476;23;20462;-65
